createdAt,value
2023-03-05T00:01:41.612Z,1.10
2023-03-05T00:04:15.333Z,1.23
2023-03-05T00:06:43.564Z,1.40
2023-03-05T00:09:12.113Z,1.40
2023-03-05T00:11:40.248Z,1.50
2023-03-05T00:14:08.586Z,1.37
2023-03-05T00:16:36.778Z,1.17
2023-03-05T00:19:05.632Z,1.40
2023-03-05T00:21:37.918Z,0.90
2023-03-05T00:24:09.994Z,1.23
2023-03-05T00:26:39.946Z,1.37
2023-03-05T00:29:09.771Z,1.53
2023-03-05T00:31:39.672Z,1.13
2023-03-05T00:34:12.275Z,1.80
2023-03-05T00:36:43.980Z,1.63
2023-03-05T00:39:12.350Z,1.63
2023-03-05T00:41:41.078Z,1.30
2023-03-05T00:44:09.538Z,1.30
2023-03-05T00:46:38.480Z,1.57
2023-03-05T00:49:06.883Z,1.20
2023-03-05T00:51:35.506Z,2.03
2023-03-05T00:54:05.631Z,1.20
2023-03-05T00:56:34.167Z,1.70
2023-03-05T00:59:02.636Z,1.93
2023-03-05T01:01:31.257Z,1.20
2023-03-05T01:04:01.055Z,1.20
2023-03-05T01:06:30.021Z,1.20
2023-03-05T01:08:59.138Z,1.27
2023-03-05T01:11:28.791Z,1.50
2023-03-05T01:13:57.252Z,1.40
2023-03-05T01:16:25.396Z,1.63
2023-03-05T01:18:53.691Z,1.43
2023-03-05T01:21:22.005Z,1.50
2023-03-05T01:23:50.218Z,1.63
2023-03-05T01:26:18.327Z,1.50
2023-03-05T01:28:48.062Z,1.40
2023-03-05T01:31:16.222Z,1.47
2023-03-05T01:33:44.337Z,1.60
2023-03-05T01:36:16.851Z,1.50
2023-03-05T01:38:46.403Z,1.00
2023-03-05T01:41:17.606Z,1.47
2023-03-05T01:43:48.792Z,1.50
2023-03-05T01:46:28.098Z,1.37
2023-03-05T01:49:17.069Z,1.50
2023-03-05T01:52:08.866Z,1.40
2023-03-05T01:54:43.404Z,1.43
2023-03-05T01:57:17.686Z,1.10
2023-03-05T01:59:51.722Z,1.17
2023-03-05T02:02:22.003Z,1.27
2023-03-05T02:04:55.574Z,1.50
2023-03-05T02:07:24.604Z,1.40
2023-03-05T02:09:52.902Z,1.40
2023-03-05T02:12:21.386Z,1.40
2023-03-05T02:14:59.338Z,1.27
2023-03-05T02:17:29.412Z,1.93
2023-03-05T02:20:06.982Z,1.30
2023-03-05T02:22:36.539Z,1.20
2023-03-05T02:25:15.918Z,1.43
2023-03-05T02:27:52.824Z,1.10
2023-03-05T02:30:21.433Z,1.23
2023-03-05T02:32:50.145Z,1.67
2023-03-05T02:35:19.129Z,1.70
2023-03-05T02:37:49.199Z,1.53
2023-03-05T02:40:18.517Z,1.23
2023-03-05T02:42:47.044Z,1.30
2023-03-05T02:45:17.428Z,1.20
2023-03-05T02:47:46.109Z,1.50
2023-03-05T02:50:14.668Z,1.20
2023-03-05T02:52:42.996Z,1.53
2023-03-05T02:55:16.477Z,1.10
2023-03-05T02:57:45.495Z,1.33
2023-03-05T03:00:15.174Z,1.27
2023-03-05T03:02:43.450Z,1.23
2023-03-05T03:05:11.833Z,0.93
2023-03-05T03:07:39.899Z,1.50
2023-03-05T03:10:09.602Z,1.20
2023-03-05T03:12:40.186Z,1.30
2023-03-05T03:15:15.656Z,1.30
2023-03-05T03:17:44.646Z,0.87
2023-03-05T03:20:16.584Z,1.40
2023-03-05T03:22:47.236Z,1.37
2023-03-05T03:25:17.212Z,1.33
2023-03-05T03:27:46.765Z,1.40
2023-03-05T03:30:16.241Z,1.10
2023-03-05T03:32:44.635Z,1.80
2023-03-05T03:35:13.736Z,1.20
2023-03-05T03:37:42.026Z,1.37
2023-03-05T03:40:12.925Z,1.23
2023-03-05T03:42:40.996Z,1.27
2023-03-05T03:45:12.149Z,0.97
2023-03-05T03:47:40.492Z,1.80
2023-03-05T03:50:10.490Z,1.73
2023-03-05T03:52:38.925Z,1.33
2023-03-05T03:55:08.578Z,1.40
2023-03-05T03:57:38.473Z,1.40
2023-03-05T04:00:11.199Z,1.20
2023-03-05T04:02:43.429Z,0.97
2023-03-05T04:05:12.228Z,1.43
2023-03-05T04:07:40.546Z,1.20
2023-03-05T04:10:10.705Z,1.23
2023-03-05T04:12:38.949Z,1.47
2023-03-05T04:15:13.050Z,1.23
2023-03-05T04:17:44.332Z,1.30
2023-03-05T04:20:13.736Z,1.57
2023-03-05T04:22:44.046Z,1.43
2023-03-05T04:25:12.556Z,1.20
2023-03-05T04:27:41.144Z,1.27
2023-03-05T04:30:14.984Z,1.40
2023-03-05T04:32:43.713Z,1.17
2023-03-05T04:35:12.603Z,1.30
2023-03-05T04:37:40.869Z,1.10
2023-03-05T04:40:11.333Z,1.30
2023-03-05T04:42:42.664Z,1.30
2023-03-05T04:45:12.851Z,1.80
2023-03-05T04:47:41.338Z,1.07
2023-03-05T04:50:12.138Z,1.60
2023-03-05T04:52:42.055Z,1.43
2023-03-05T04:55:12.882Z,1.30
2023-03-05T04:57:41.451Z,1.40
2023-03-05T05:00:15.612Z,1.30
2023-03-05T05:02:44.503Z,2.07
2023-03-05T05:05:16.954Z,1.50
2023-03-05T05:07:45.535Z,1.30
2023-03-05T05:10:16.375Z,2.23
2023-03-05T05:12:45.004Z,1.47
2023-03-05T05:15:15.370Z,1.20
2023-03-05T05:17:43.635Z,1.40
2023-03-05T05:20:14.626Z,1.20
2023-03-05T05:22:43.677Z,1.10
2023-03-05T05:25:12.467Z,0.87
2023-03-05T05:27:41.672Z,1.30
2023-03-05T05:30:12.284Z,0.83
2023-03-05T05:32:42.041Z,1.50
2023-03-05T05:35:12.148Z,1.10
2023-03-05T05:37:40.425Z,1.43
2023-03-05T05:40:10.633Z,1.10
2023-03-05T05:42:39.002Z,1.40
2023-03-05T05:45:09.091Z,1.07
2023-03-05T05:47:37.480Z,0.90
2023-03-05T05:50:08.695Z,1.30
2023-03-05T05:52:36.945Z,1.43
2023-03-05T05:55:06.684Z,1.20
2023-03-05T05:57:36.004Z,1.67
2023-03-05T06:00:05.467Z,1.10
2023-03-05T06:02:40.736Z,0.87
2023-03-05T06:05:14.750Z,1.50
2023-03-05T06:07:43.593Z,1.03
2023-03-05T06:10:13.296Z,1.20
2023-03-05T06:12:41.542Z,1.40
2023-03-05T06:15:11.061Z,1.33
2023-03-05T06:17:39.628Z,1.50
2023-03-05T06:20:11.343Z,1.13
2023-03-05T06:22:40.658Z,1.20
2023-03-05T06:25:11.048Z,1.23
2023-03-05T06:27:39.945Z,1.50
2023-03-05T06:30:11.609Z,1.87
2023-03-05T06:32:39.921Z,1.27
2023-03-05T06:35:10.391Z,1.73
2023-03-05T06:37:38.674Z,2.00
2023-03-05T06:40:09.763Z,1.50
2023-03-05T06:42:38.092Z,2.00
2023-03-05T06:45:08.423Z,1.70
2023-03-05T06:47:36.945Z,1.60
2023-03-05T06:50:06.279Z,1.80
2023-03-05T06:52:36.108Z,1.60
2023-03-05T06:55:05.315Z,2.20
2023-03-05T06:57:33.806Z,1.80
2023-03-05T07:00:02.098Z,1.73
2023-03-05T07:02:30.387Z,2.13
2023-03-05T07:04:58.625Z,2.00
2023-03-05T07:07:26.961Z,2.17
2023-03-05T07:09:56.817Z,1.40
2023-03-05T07:12:25.116Z,2.07
2023-03-05T07:14:53.477Z,1.90
2023-03-05T07:17:21.867Z,1.70
2023-03-05T07:19:50.226Z,1.80
2023-03-05T07:22:18.564Z,1.83
2023-03-05T07:24:47.306Z,2.43
2023-03-05T07:27:17.241Z,2.00
2023-03-05T07:29:45.873Z,2.03
2023-03-05T07:32:14.396Z,2.47
2023-03-05T07:34:42.634Z,2.53
2023-03-05T07:37:10.904Z,1.73
2023-03-05T07:39:39.312Z,2.13
2023-03-05T07:42:08.256Z,2.20
2023-03-05T07:44:52.936Z,2.57
2023-03-05T07:47:21.237Z,1.80
2023-03-05T07:49:49.780Z,2.20
2023-03-05T07:52:19.629Z,2.37
2023-03-05T07:54:50.984Z,1.83
2023-03-05T07:57:19.321Z,2.50
2023-03-05T07:59:47.547Z,2.47
2023-03-05T08:02:19.686Z,2.03
2023-03-05T08:04:47.913Z,2.50
2023-03-05T08:07:17.485Z,1.67
2023-03-05T08:09:45.787Z,1.90
2023-03-05T08:12:14.088Z,1.77
2023-03-05T08:14:42.475Z,1.37
2023-03-05T08:17:10.837Z,2.00
2023-03-05T08:19:40.369Z,1.30
2023-03-05T08:22:08.643Z,1.37
2023-03-05T08:24:37.011Z,1.90
2023-03-05T08:27:05.530Z,1.80
2023-03-05T08:29:34.077Z,1.93
2023-03-05T08:32:02.458Z,2.13
2023-03-05T08:34:30.750Z,2.27
2023-03-05T08:37:00.463Z,2.10
2023-03-05T08:39:30.105Z,1.60
2023-03-05T08:41:58.387Z,1.60
2023-03-05T08:44:26.613Z,1.63
2023-03-05T08:46:54.796Z,1.57
2023-03-05T08:49:24.377Z,1.97
2023-03-05T08:51:58.422Z,2.03
2023-03-05T08:54:28.154Z,1.80
2023-03-05T08:56:56.468Z,1.90
2023-03-05T08:59:24.656Z,2.73
2023-03-05T09:01:52.897Z,2.10
2023-03-05T09:04:21.206Z,2.47
2023-03-05T09:06:49.452Z,2.33
2023-03-05T09:09:20.610Z,2.40
2023-03-05T09:11:51.957Z,2.27
2023-03-05T09:14:20.840Z,2.17
2023-03-05T09:16:49.110Z,2.10
2023-03-05T09:19:17.416Z,1.83
2023-03-05T09:21:45.878Z,1.90
2023-03-05T09:24:14.707Z,2.30
2023-03-05T09:26:43.290Z,1.50
2023-03-05T09:29:13.537Z,1.83
2023-03-05T09:31:43.235Z,1.90
2023-03-05T09:34:12.895Z,1.87
2023-03-05T09:36:41.254Z,1.90
2023-03-05T09:39:09.739Z,1.47
2023-03-05T09:42:05.240Z,1.70
2023-03-05T09:44:44.941Z,1.50
2023-03-05T09:47:38.890Z,1.60
2023-03-05T09:50:33.912Z,1.40
2023-03-05T09:53:18.987Z,1.03
2023-03-05T09:55:52.311Z,1.20
2023-03-05T09:58:35.046Z,1.30
2023-03-05T10:01:09.563Z,1.30
2023-03-05T10:03:56.854Z,1.00
2023-03-05T10:06:31.705Z,1.00
2023-03-05T10:09:12.879Z,1.23
2023-03-05T10:11:51.956Z,1.53
2023-03-05T10:14:28.832Z,1.10
2023-03-05T10:18:02.673Z,1.40
2023-03-05T10:20:59.959Z,0.80
2023-03-05T10:24:04.518Z,1.20
2023-03-05T10:26:48.603Z,1.43
2023-03-05T10:29:59.157Z,1.27
2023-03-05T10:32:52.909Z,1.07
2023-03-05T10:36:00.434Z,1.20
2023-03-05T10:39:02.832Z,1.30
2023-03-05T10:41:48.397Z,0.83
2023-03-05T10:44:38.830Z,1.00
2023-03-05T10:47:17.784Z,1.33
2023-03-05T10:49:56.168Z,1.00
2023-03-05T10:52:42.564Z,1.20
2023-03-05T10:55:24.564Z,1.37
2023-03-05T10:57:56.157Z,1.20
2023-03-05T11:00:29.126Z,0.60
2023-03-05T11:03:03.117Z,0.40
2023-03-05T11:05:48.222Z,0.53
2023-03-05T11:08:32.779Z,0.50
2023-03-05T11:11:22.555Z,0.57
2023-03-05T11:13:59.264Z,0.70
2023-03-05T11:16:31.674Z,0.60
2023-03-05T11:19:29.613Z,0.70
2023-03-05T11:22:18.978Z,0.80
2023-03-05T11:25:18.870Z,0.70
2023-03-05T11:27:55.485Z,0.47
2023-03-05T11:30:30.122Z,0.60
2023-03-05T11:33:16.020Z,0.77
2023-03-05T11:35:45.814Z,1.07
2023-03-05T11:38:21.446Z,0.80
2023-03-05T11:40:52.046Z,1.03
2023-03-05T11:43:23.301Z,0.70
2023-03-05T11:46:06.044Z,1.00
2023-03-05T11:48:39.029Z,0.97
2023-03-05T11:51:17.714Z,1.07
2023-03-05T11:53:57.825Z,1.30
2023-03-05T11:56:39.374Z,1.23
2023-03-05T11:59:19.107Z,1.10
2023-03-05T12:01:51.290Z,1.43
2023-03-05T12:04:22.450Z,1.07
2023-03-05T12:06:55.129Z,1.33
2023-03-05T12:09:40.889Z,0.97
2023-03-05T12:12:52.028Z,1.33
2023-03-05T12:16:13.971Z,0.80
2023-03-05T12:19:07.662Z,0.93
2023-03-05T12:21:41.080Z,1.07
2023-03-05T12:24:39.553Z,1.33
2023-03-05T12:27:32.577Z,1.00
2023-03-05T12:30:24.260Z,0.77
2023-03-05T12:32:56.489Z,0.90
2023-03-05T12:35:30.272Z,0.90
2023-03-05T12:38:26.761Z,0.80
2023-03-05T12:41:46.209Z,0.90
2023-03-05T12:44:24.118Z,0.83
2023-03-05T12:47:19.421Z,1.00
2023-03-05T12:49:49.351Z,0.90
2023-03-05T12:52:27.796Z,0.70
2023-03-05T12:55:08.581Z,1.00
2023-03-05T12:57:38.787Z,0.73
2023-03-05T13:00:15.374Z,1.00
2023-03-05T13:02:58.094Z,0.90
2023-03-05T13:05:31.964Z,0.73
2023-03-05T13:08:24.711Z,0.80
2023-03-05T13:10:58.484Z,1.07
2023-03-05T13:13:32.355Z,0.60
2023-03-05T13:16:02.073Z,0.70
2023-03-05T13:18:33.644Z,0.60
2023-03-05T13:21:05.567Z,0.60
2023-03-05T13:23:37.046Z,0.80
2023-03-05T13:26:15.431Z,0.90
2023-03-05T13:28:46.656Z,0.90
2023-03-05T13:31:18.455Z,0.80
2023-03-05T13:33:56.840Z,0.93
2023-03-05T13:36:28.131Z,0.70
2023-03-05T13:38:57.969Z,0.97
2023-03-05T13:41:29.793Z,0.90
2023-03-05T13:44:01.965Z,1.00
2023-03-05T13:46:34.354Z,0.93
2023-03-05T13:49:20.335Z,0.80
2023-03-05T13:51:51.865Z,0.90
2023-03-05T13:54:21.116Z,0.93
2023-03-05T13:56:59.183Z,1.00
2023-03-05T13:59:31.818Z,0.80
2023-03-05T14:02:02.470Z,0.80
2023-03-05T14:04:36.674Z,0.87
2023-03-05T14:07:08.889Z,0.80
2023-03-05T14:09:48.604Z,0.80
2023-03-05T14:12:30.317Z,0.77
2023-03-05T14:15:02.635Z,0.90
2023-03-05T14:17:41.777Z,0.80
2023-03-05T14:20:27.613Z,0.90
2023-03-05T14:22:58.032Z,1.00
2023-03-05T14:25:38.367Z,0.80
2023-03-05T14:28:28.146Z,1.10
2023-03-05T14:31:06.123Z,0.90
2023-03-05T14:33:38.018Z,0.90
2023-03-05T14:36:12.115Z,0.90
2023-03-05T14:38:43.838Z,0.75
2023-03-05T14:42:32.440Z,0.88
2023-03-05T14:45:28.636Z,1.08
2023-03-05T14:48:00.888Z,0.85
2023-03-05T14:50:33.320Z,0.77
2023-03-05T14:53:07.903Z,0.82
2023-03-05T14:55:41.191Z,0.90
2023-03-05T14:58:16.064Z,0.70
2023-03-05T15:00:51.351Z,0.60
2023-03-05T15:03:22.982Z,0.77
2023-03-05T15:05:54.441Z,0.73
2023-03-05T15:08:27.539Z,0.77
2023-03-05T15:10:59.519Z,0.73
2023-03-05T15:13:28.654Z,0.68
2023-03-05T15:15:57.037Z,0.82
2023-03-05T15:18:27.925Z,0.55
2023-03-05T15:20:59.468Z,0.90
2023-03-05T15:23:36.655Z,0.77
2023-03-05T15:26:16.057Z,0.90
2023-03-05T15:29:23.392Z,1.10
2023-03-05T15:31:54.557Z,0.98
2023-03-05T15:34:24.216Z,0.90
2023-03-05T15:36:52.579Z,1.25
2023-03-05T15:39:20.783Z,1.05
2023-03-05T15:41:49.039Z,1.08
2023-03-05T15:44:17.411Z,0.77
2023-03-05T15:46:46.059Z,1.00
2023-03-05T15:49:14.485Z,1.00
2023-03-05T15:51:44.202Z,0.95
2023-03-05T15:54:12.652Z,0.80
2023-03-05T15:56:42.842Z,1.13
2023-03-05T15:59:14.706Z,0.70
2023-03-05T16:01:48.548Z,0.77
2023-03-05T16:04:18.111Z,0.80
2023-03-05T16:06:51.645Z,0.90
2023-03-05T16:09:34.181Z,1.07
2023-03-05T16:12:13.242Z,1.00
2023-03-05T16:14:50.880Z,1.00
2023-03-05T16:17:23.437Z,0.90
2023-03-05T16:19:58.688Z,1.10
2023-03-05T16:22:28.293Z,1.13
2023-03-05T16:24:57.544Z,1.00
2023-03-05T16:27:29.450Z,1.10
2023-03-05T16:29:58.422Z,0.90
2023-03-05T16:32:27.050Z,0.73
2023-03-05T16:34:55.660Z,1.00
2023-03-05T16:37:27.364Z,0.83
2023-03-05T16:40:16.694Z,0.80
2023-03-05T16:42:47.629Z,0.98
2023-03-05T16:45:22.878Z,1.00
2023-03-05T16:47:58.020Z,0.90
2023-03-05T16:50:31.714Z,1.20
2023-03-05T16:53:06.891Z,0.90
2023-03-05T16:55:47.675Z,1.50
2023-03-05T16:58:21.959Z,0.80
2023-03-05T17:00:50.539Z,1.07
2023-03-05T17:03:22.540Z,1.10
2023-03-05T17:06:10.317Z,1.10
2023-03-05T17:08:40.518Z,1.10
2023-03-05T17:11:23.688Z,1.17
2023-03-05T17:16:51.824Z,1.40
2023-03-05T17:19:23.911Z,1.17
2023-03-05T17:22:02.355Z,1.00
2023-03-05T17:24:36.151Z,1.00
2023-03-05T17:27:05.944Z,1.03
2023-03-05T17:29:34.504Z,1.30
2023-03-05T17:32:03.347Z,1.40
2023-03-05T17:34:37.829Z,1.50
2023-03-05T17:37:08.271Z,1.63
2023-03-05T17:39:44.668Z,1.50
2023-03-05T17:42:22.696Z,1.40
2023-03-05T17:44:52.900Z,1.20
2023-03-05T17:47:27.592Z,1.10
2023-03-05T17:49:55.994Z,2.20
2023-03-05T17:52:24.495Z,1.50
2023-03-05T17:54:54.434Z,1.50
2023-03-05T17:57:24.663Z,1.50
2023-03-05T18:00:40.708Z,1.17
2023-03-05T18:03:20.646Z,1.43
2023-03-05T18:05:53.974Z,1.37
2023-03-05T18:08:22.485Z,1.90
2023-03-05T18:10:52.487Z,1.87
2023-03-05T18:13:22.152Z,1.60
2023-03-05T18:15:50.599Z,1.70
2023-03-05T18:18:40.130Z,1.90
2023-03-05T18:21:23.414Z,1.87
2023-03-05T18:23:53.079Z,1.53
2023-03-05T18:26:23.032Z,1.40
2023-03-05T18:28:52.432Z,1.57
2023-03-05T18:31:21.150Z,1.80
2023-03-05T18:33:53.953Z,1.73
2023-03-05T18:36:23.761Z,1.83
2023-03-05T18:39:00.178Z,2.73
2023-03-05T18:41:33.170Z,3.20
2023-03-05T18:44:01.870Z,2.70
2023-03-05T18:46:30.329Z,2.00
2023-03-05T18:49:00.049Z,2.03
2023-03-05T18:51:30.186Z,1.60
2023-03-05T18:53:58.885Z,1.50
2023-03-05T18:56:27.388Z,1.60
2023-03-05T18:58:58.880Z,1.20
2023-03-05T19:01:28.720Z,1.57
2023-03-05T19:03:57.937Z,1.20
2023-03-05T19:06:26.696Z,1.20
2023-03-05T19:08:59.337Z,1.73
2023-03-05T19:11:28.028Z,1.30
2023-03-05T19:13:58.478Z,1.40
2023-03-05T19:16:33.751Z,1.50
2023-03-05T19:19:13.760Z,1.00
2023-03-05T19:21:42.746Z,1.30
2023-03-05T19:24:11.965Z,1.10
2023-03-05T19:26:41.290Z,1.37
2023-03-05T19:29:12.034Z,1.90
2023-03-05T19:31:40.568Z,2.00
2023-03-05T19:34:09.349Z,2.07
2023-03-05T19:36:37.887Z,1.57
2023-03-05T19:39:07.174Z,1.50
2023-03-05T19:41:36.408Z,1.90
2023-03-05T19:44:06.451Z,1.70
2023-03-05T19:46:36.332Z,1.40
2023-03-05T19:49:04.927Z,1.77
2023-03-05T19:51:33.314Z,2.07
2023-03-05T19:54:05.533Z,2.07
2023-03-05T19:56:36.660Z,1.53
2023-03-05T19:59:08.190Z,1.40
2023-03-05T20:01:38.150Z,1.50
2023-03-05T20:04:07.473Z,1.50
2023-03-05T20:06:35.760Z,1.33
2023-03-05T20:09:11.939Z,1.13
2023-03-05T20:11:40.699Z,1.50
2023-03-05T20:14:09.854Z,1.50
2023-03-05T20:16:39.483Z,1.30
2023-03-05T20:19:16.154Z,1.17
2023-03-05T20:21:45.874Z,1.37
2023-03-05T20:24:17.535Z,1.23
2023-03-05T20:26:48.163Z,1.20
2023-03-05T20:29:18.293Z,1.07
2023-03-05T20:31:56.325Z,1.30
2023-03-05T20:34:25.017Z,1.40
2023-03-05T20:36:53.206Z,1.40
2023-03-05T20:39:21.528Z,1.40
2023-03-05T20:41:51.193Z,1.53
2023-03-05T20:44:19.801Z,1.40
2023-03-05T20:47:02.553Z,1.50
2023-03-05T20:49:30.816Z,1.30
2023-03-05T20:51:58.938Z,1.33
2023-03-05T20:54:27.243Z,1.50
2023-03-05T20:56:55.419Z,1.50
2023-03-05T20:59:24.714Z,1.93
2023-03-05T21:01:54.374Z,2.00
2023-03-05T21:04:22.990Z,2.10
2023-03-05T21:06:54.114Z,1.63
2023-03-05T21:09:22.212Z,1.80
2023-03-05T21:11:50.371Z,4.10
2023-03-05T21:14:18.483Z,3.97
2023-03-05T21:16:46.676Z,3.10
2023-03-05T21:19:16.421Z,2.60
2023-03-05T21:21:45.776Z,2.60
2023-03-05T21:24:16.450Z,2.60
2023-03-05T21:26:44.607Z,2.53
2023-03-05T21:29:12.819Z,2.10
2023-03-05T21:31:41.035Z,2.20
2023-03-05T21:34:09.123Z,2.10
2023-03-05T21:36:38.920Z,2.20
2023-03-05T21:39:07.166Z,2.00
2023-03-05T21:41:35.327Z,2.30
2023-03-05T21:44:04.060Z,1.87
2023-03-05T21:46:32.158Z,2.33
2023-03-05T21:49:00.234Z,2.30
2023-03-05T21:51:38.226Z,2.00
2023-03-05T21:54:08.900Z,2.00
2023-03-05T21:56:37.059Z,2.40
2023-03-05T21:59:05.243Z,2.10
2023-03-05T22:01:33.393Z,2.37
2023-03-05T22:04:01.591Z,2.30
2023-03-05T22:06:29.721Z,2.80
2023-03-05T22:08:57.815Z,2.40
2023-03-05T22:11:27.271Z,2.47
2023-03-05T22:13:56.798Z,2.40
2023-03-05T22:16:28.357Z,2.67
2023-03-05T22:18:56.478Z,2.37
2023-03-05T22:21:27.906Z,2.63
2023-03-05T22:23:57.883Z,2.70
2023-03-05T22:26:35.312Z,2.70
2023-03-05T22:29:05.158Z,2.80
2023-03-05T22:31:33.436Z,2.93
2023-03-05T22:34:01.628Z,3.07
2023-03-05T22:36:29.680Z,2.53
2023-03-05T22:38:57.839Z,3.07
2023-03-05T22:41:27.285Z,3.00
2023-03-05T22:43:55.373Z,2.70
2023-03-05T22:46:26.588Z,2.80
2023-03-05T22:48:55.304Z,3.07
2023-03-05T22:51:23.428Z,3.27
2023-03-05T22:53:51.685Z,3.27
2023-03-05T22:56:21.706Z,3.00
2023-03-05T22:58:51.299Z,2.93
2023-03-05T23:01:22.201Z,3.07
2023-03-05T23:03:58.543Z,2.53
2023-03-05T23:06:26.783Z,2.63
2023-03-05T23:08:54.854Z,2.50
2023-03-05T23:11:23.053Z,3.00
2023-03-05T23:13:52.591Z,2.93
2023-03-05T23:16:20.705Z,3.10
2023-03-05T23:18:48.768Z,3.27
2023-03-05T23:21:16.920Z,3.03
2023-03-05T23:23:45.029Z,3.20
2023-03-05T23:26:13.815Z,3.23
2023-03-05T23:28:41.938Z,3.13
2023-03-05T23:31:11.633Z,3.63
2023-03-05T23:33:40.049Z,2.90
2023-03-05T23:36:09.569Z,4.10
2023-03-05T23:38:37.953Z,3.03
2023-03-05T23:41:10.087Z,3.20
2023-03-05T23:43:38.186Z,2.97
2023-03-05T23:46:13.281Z,3.10
2023-03-05T23:48:41.738Z,3.07
2023-03-05T23:51:10.928Z,3.27
2023-03-05T23:53:39.082Z,3.60
2023-03-05T23:56:10.979Z,2.80
2023-03-05T23:58:39.660Z,3.60
